Impacts TAF Board
For situational awareness. Not to be used for flight planning purposes.
IDs:

KOKC - Oklahoma City/Will R, OK, US

Issued at 1741 UTC 06 Dec 2019
Updated at 2119 UTC 06 Dec 2019
Potential Impact None Slight Moderate High
Time2052Z 06/22Z 06/23Z 07/00Z 07/01Z 07/02Z 07/03Z 07/04Z 07/05Z 07/06Z 07/07Z 07/08Z 07/09Z 07/10Z>>
Type OBS PRVL PRVL PRVL PRVL PRVL PRVL PRVL PRVL PRVL PRVL PRVL PRVL PRVL
VIS 10 >6 >6 >6 >6 >6 >6 >6 >6 >6 >6 >6 >6 >6
CIG 250 -- -- -- -- -- -- -- -- 250 250 250 250 250
Cover BKN SCT SCT SCT SCT SCT SCT SCT SCT BKN BKN BKN BKN BKN
FltCat VFR VFR VFR VFR VFR VFR VFR VFR VFR VFR VFR VFR VFR VFR
WX -- -- -- -- -- -- -- -- -- -- -- -- -- --
WDir 10 360 360 360 360 360 360 360 360 VRB VRB VRB VRB VRB
WSpd 15 11 11 11 11 11 11 11 11 3 3 3 3 3
WGst -- -- -- -- -- -- -- -- -- -- -- -- -- --
Raw TAF
KOKC 061741Z 0618/0718 36014G20KT P6SM SCT020
  FM061900 36011KT P6SM SCT250
  FM070600 VRB03KT P6SM BKN250


Raw METAR
KOKC 062052Z 01015KT 10SM BKN250 08/01 A3030 RMK AO2 SLP263 T00830006 55005
KOKC 061952Z 36013KT 10SM BKN250 08/01 A3030 RMK AO2 SLP261 T00780006
KOKC 061852Z 35014KT 10SM FEW020 BKN250 07/01 A3031 RMK AO2 SLP264 T00720006

METAR Board
Radar Display
Forecast Discussion
For situational awareness. Not to be used for flight planning purposes.